Time;durP1;ratioP1;P1;durP2;ratioP2;P2;SDS_P1;SDS_P2;PMS_P1;PMS_P2;Temp;Humidity;BMP_temperature;BMP_pressure;BME280_temperature;BME280_humidity;BME280_pressure;Samples;Min_cycle;Max_cycle;Signal;HPM_P1;HPM_P2
2023/01/04 00:00:22;;;;;;;16.17;7.00;;;2.80;99.90;;;;;;5012769;28;20543;-71
2023/01/04 00:02:48;;;;;;;10.50;5.63;;;2.80;99.90;;;;;;5021936;28;20190;-71
2023/01/04 00:05:14;;;;;;;13.77;6.70;;;2.80;99.90;;;;;;5032984;28;20599;-72
2023/01/04 00:07:39;;;;;;;10.53;5.40;;;2.70;99.90;;;;;;5019185;28;20230;-72
2023/01/04 00:10:05;;;;;;;9.17;5.80;;;2.70;99.90;;;;;;5032027;28;20179;-72
2023/01/04 00:12:31;;;;;;;10.80;6.10;;;2.70;99.90;;;;;;5032260;28;20205;-72
2023/01/04 00:14:56;;;;;;;11.90;7.47;;;2.70;99.90;;;;;;5032158;28;20851;-72
2023/01/04 00:17:22;;;;;;;10.70;5.80;;;2.70;99.90;;;;;;5032311;28;20178;-71
2023/01/04 00:19:47;;;;;;;12.30;6.53;;;2.80;99.90;;;;;;5032853;28;20257;-71
2023/01/04 00:22:13;;;;;;;11.70;5.50;;;2.80;99.90;;;;;;5032117;28;20758;-72
2023/01/04 00:24:38;;;;;;;11.23;5.83;;;2.80;99.90;;;;;;5031105;28;20195;-71
2023/01/04 00:27:04;;;;;;;13.60;6.60;;;2.80;99.90;;;;;;5031591;28;20213;-72
2023/01/04 00:29:30;;;;;;;11.23;6.80;;;2.70;99.90;;;;;;5019783;28;20179;-72
2023/01/04 00:31:56;;;;;;;9.63;6.17;;;2.80;99.90;;;;;;5018124;28;20418;-72
2023/01/04 00:34:21;;;;;;;11.40;5.80;;;2.80;99.90;;;;;;5032427;28;20174;-72
2023/01/04 00:36:47;;;;;;;14.00;6.17;;;2.70;99.90;;;;;;5018976;28;20307;-72
2023/01/04 00:39:15;;;;;;;14.03;7.13;;;2.70;99.90;;;;;;5020469;28;20506;-72
2023/01/04 00:41:43;;;;;;;12.90;6.30;;;2.70;99.90;;;;;;5021218;28;20996;-72
2023/01/04 00:44:10;;;;;;;18.07;7.10;;;2.70;99.90;;;;;;5024182;28;20494;-72
2023/01/04 00:46:36;;;;;;;14.50;6.83;;;2.70;99.90;;;;;;5009566;28;20406;-72
2023/01/04 00:49:04;;;;;;;8.20;5.90;;;2.70;99.90;;;;;;5015377;28;20465;-72
2023/01/04 00:51:31;;;;;;;14.97;6.87;;;2.70;99.90;;;;;;5026526;28;20866;-72
2023/01/04 00:53:59;;;;;;;12.80;6.10;;;2.70;99.90;;;;;;5031869;28;20786;-72
2023/01/04 00:56:24;;;;;;;13.60;6.63;;;2.80;99.90;;;;;;5032082;28;20456;-72
2023/01/04 00:58:54;;;;;;;9.57;5.13;;;2.70;99.90;;;;;;5023377;28;20441;-72
2023/01/04 01:01:20;;;;;;;9.70;5.80;;;2.70;99.90;;;;;;5017403;28;20274;-72
2023/01/04 01:03:46;;;;;;;13.27;6.97;;;2.70;99.90;;;;;;5031300;28;20858;-72
2023/01/04 01:06:11;;;;;;;11.60;5.87;;;2.60;99.90;;;;;;5031709;28;20663;-72
2023/01/04 01:08:37;;;;;;;9.97;5.00;;;2.60;99.90;;;;;;5017231;28;20202;-71
2023/01/04 01:11:08;;;;;;;13.60;7.27;;;2.60;99.90;;;;;;5025561;28;20651;-72
2023/01/04 01:13:35;;;;;;;11.67;6.70;;;2.60;99.90;;;;;;5020617;28;20542;-72
2023/01/04 01:16:20;;;;;;;14.60;6.77;;;2.60;99.90;;;;;;5030883;28;20409;-72
2023/01/04 01:18:46;;;;;;;13.23;6.13;;;2.60;99.90;;;;;;5030026;28;20479;-72
2023/01/04 01:21:18;;;;;;;11.77;5.50;;;2.60;99.90;;;;;;5025549;28;20932;-72
2023/01/04 01:23:44;;;;;;;13.63;5.83;;;2.50;99.90;;;;;;5016100;28;20278;-72
2023/01/04 01:26:13;;;;;;;12.13;5.83;;;2.50;99.90;;;;;;5030893;28;20413;-72
2023/01/04 01:28:39;;;;;;;13.03;6.27;;;2.50;99.90;;;;;;5009008;28;20544;-72
2023/01/04 01:31:10;;;;;;;9.40;5.13;;;2.50;99.90;;;;;;5024393;28;20430;-72
2023/01/04 01:33:37;;;;;;;9.13;4.90;;;2.50;99.90;;;;;;5024458;28;20413;-72
2023/01/04 01:36:03;;;;;;;11.90;6.47;;;2.50;99.90;;;;;;5024388;28;20537;-72
2023/01/04 01:38:29;;;;;;;13.27;5.73;;;2.60;99.90;;;;;;5025429;28;20916;-72
2023/01/04 01:40:55;;;;;;;21.20;6.07;;;2.60;99.90;;;;;;5024324;28;20422;-72
2023/01/04 01:43:42;;;;;;;10.30;5.20;;;2.60;99.90;;;;;;5024608;28;20202;-72
2023/01/04 01:46:08;;;;;;;10.60;5.80;;;2.60;99.90;;;;;;5020111;28;20608;-72
2023/01/04 01:48:34;;;;;;;15.37;5.53;;;2.60;99.90;;;;;;5018990;28;21059;-72
2023/01/04 01:51:02;;;;;;;10.73;5.63;;;2.50;99.90;;;;;;5027104;28;20568;-72
2023/01/04 01:53:32;;;;;;;8.97;5.50;;;2.50;99.90;;;;;;5028606;28;20842;-72
2023/01/04 01:55:59;;;;;;;10.33;5.10;;;2.50;99.90;;;;;;5028400;28;20433;-72
2023/01/04 01:58:33;;;;;;;10.17;5.40;;;2.50;99.90;;;;;;5031609;28;20463;-72
2023/01/04 02:01:00;;;;;;;8.50;5.30;;;2.50;99.90;;;;;;5016971;28;20406;-72
2023/01/04 02:03:35;;;;;;;10.00;4.90;;;2.40;99.90;;;;;;5023980;28;20417;-72
2023/01/04 02:06:05;;;;;;;9.10;5.60;;;2.40;99.90;;;;;;5038123;28;20425;-72
2023/01/04 02:08:31;;;;;;;8.37;4.00;;;2.40;99.90;;;;;;5038517;28;20499;-72
2023/01/04 02:10:57;;;;;;;10.43;5.80;;;2.40;99.90;;;;;;5036875;28;20444;-72
2023/01/04 02:14:25;;;;;;;9.43;4.60;;;2.50;99.90;;;;;;5021218;28;20224;-72
2023/01/04 02:16:27;;;;;;;9.00;5.00;;;2.40;99.90;;;;;;5033123;28;20906;-72
2023/01/04 02:19:32;;;;;;;12.90;6.50;;;2.40;99.90;;;;;;5030784;28;20420;-72
2023/01/04 02:22:18;;;;;;;9.30;5.37;;;2.40;99.90;;;;;;5010252;28;20430;-72
2023/01/04 02:25:21;;;;;;;8.67;5.43;;;2.40;99.90;;;;;;5029974;28;20417;-71
2023/01/04 02:27:53;;;;;;;9.90;4.83;;;2.40;99.90;;;;;;5036459;28;20464;-72
2023/01/04 02:30:44;;;;;;;7.67;4.70;;;2.40;99.90;;;;;;5033363;28;20512;-72
2023/01/04 02:33:15;;;;;;;11.67;5.77;;;2.40;99.90;;;;;;5017323;28;20409;-72
2023/01/04 02:35:50;;;;;;;12.07;6.07;;;2.40;99.90;;;;;;5037102;28;20479;-72
2023/01/04 02:38:33;;;;;;;10.90;5.10;;;2.40;99.90;;;;;;5037206;28;20800;-71
2023/01/04 02:41:22;;;;;;;11.17;5.10;;;2.40;99.90;;;;;;5037099;28;20425;-72
2023/01/04 02:46:52;;;;;;;7.67;4.20;;;2.40;99.90;;;;;;5014072;28;20460;-72
2023/01/04 02:52:02;;;;;;;9.00;4.73;;;2.40;99.90;;;;;;5022538;28;20435;-71
2023/01/04 02:54:31;;;;;;;10.57;4.20;;;2.40;99.90;;;;;;5037025;28;20409;-72
2023/01/04 02:57:15;;;;;;;6.47;3.70;;;2.40;99.90;;;;;;5036884;28;20194;-72
2023/01/04 02:59:58;;;;;;;11.63;5.27;;;2.50;99.90;;;;;;5014238;28;20402;-72
2023/01/04 03:06:16;;;;;;;7.23;4.03;;;2.50;99.90;;;;;;5015000;28;20411;-71
2023/01/04 03:08:50;;;;;;;6.73;3.80;;;2.50;99.90;;;;;;5034023;28;20457;-71
2023/01/04 03:14:16;;;;;;;5.97;3.53;;;2.50;99.90;;;;;;5027617;28;20440;-72
2023/01/04 03:16:44;;;;;;;11.33;3.57;;;2.50;99.90;;;;;;5034084;28;20432;-71
2023/01/04 03:19:11;;;;;;;7.17;3.60;;;2.60;99.90;;;;;;5033181;28;20420;-72
2023/01/04 03:21:41;;;;;;;7.30;3.53;;;2.60;99.90;;;;;;5022390;28;20445;-72
2023/01/04 03:35:53;;;;;;;7.03;3.07;;;2.70;99.90;;;;;;5013967;28;20436;-72
2023/01/04 03:50:20;;;;;;;5.63;2.40;;;2.90;99.90;;;;;;5029192;28;20572;-72
2023/01/04 03:52:47;;;;;;;5.30;2.70;;;2.90;99.90;;;;;;5025856;28;20424;-72
2023/01/04 03:55:15;;;;;;;6.27;2.53;;;2.90;99.90;;;;;;5017081;28;20424;-72
2023/01/04 03:57:41;;;;;;;3.97;2.57;;;2.90;99.90;;;;;;5016506;28;20441;-72
2023/01/04 04:00:16;;;;;;;5.43;2.63;;;2.90;99.90;;;;;;5015927;28;20425;-72
2023/01/04 04:02:43;;;;;;;5.90;3.10;;;2.90;99.90;;;;;;5025564;28;20446;-72
2023/01/04 04:10:46;;;;;;;3.70;2.07;;;2.90;99.90;;;;;;5031495;28;20420;-72
2023/01/04 04:13:11;;;;;;;5.93;2.70;;;2.90;99.90;;;;;;5032014;28;20413;-72
2023/01/04 04:15:38;;;;;;;6.17;2.60;;;3.00;99.90;;;;;;5032082;28;20174;-73
2023/01/04 04:18:04;;;;;;;6.07;2.90;;;3.00;99.90;;;;;;5032308;28;20209;-72
2023/01/04 04:20:30;;;;;;;4.00;1.97;;;3.10;99.90;;;;;;5020322;28;20573;-72
2023/01/04 04:22:55;;;;;;;4.43;1.47;;;3.20;99.90;;;;;;5021506;28;20194;-73
2023/01/04 04:25:21;;;;;;;5.73;2.60;;;3.20;99.90;;;;;;5000410;28;20518;-72
2023/01/04 04:27:46;;;;;;;4.07;2.20;;;3.20;99.90;;;;;;5030305;28;20202;-73
2023/01/04 04:30:12;;;;;;;4.70;2.00;;;3.30;99.90;;;;;;5032192;28;20531;-72
2023/01/04 04:32:38;;;;;;;3.53;1.77;;;3.30;99.90;;;;;;5028940;28;20186;-72
2023/01/04 04:35:04;;;;;;;3.47;1.97;;;3.30;99.90;;;;;;5032465;28;20190;-72
2023/01/04 04:37:30;;;;;;;5.60;2.10;;;3.40;99.90;;;;;;5031968;28;20190;-72
2023/01/04 04:39:57;;;;;;;4.33;1.30;;;3.50;99.90;;;;;;5032487;28;20312;-72
2023/01/04 04:42:22;;;;;;;3.60;1.60;;;3.60;99.90;;;;;;5017954;28;20982;-72
2023/01/04 04:44:48;;;;;;;2.50;1.60;;;3.70;99.90;;;;;;5018918;28;20520;-72
2023/01/04 04:47:14;;;;;;;4.20;1.70;;;3.70;99.90;;;;;;5017642;28;20207;-72
2023/01/04 04:49:39;;;;;;;2.13;1.33;;;3.80;99.90;;;;;;5021596;28;20281;-73
2023/01/04 04:52:05;;;;;;;2.27;1.20;;;3.80;99.90;;;;;;5030014;28;20190;-72
2023/01/04 04:54:30;;;;;;;2.43;1.40;;;3.80;99.90;;;;;;5025521;28;20194;-72
2023/01/04 04:56:56;;;;;;;2.50;1.93;;;3.90;99.90;;;;;;5031423;28;20186;-72
2023/01/04 04:59:22;;;;;;;3.27;1.77;;;3.90;99.90;;;;;;5018443;28;20242;-72
2023/01/04 05:01:47;;;;;;;2.60;1.60;;;3.90;99.90;;;;;;5011700;28;20575;-73
2023/01/04 05:04:15;;;;;;;3.47;2.00;;;3.90;99.90;;;;;;5012186;28;20548;-72
2023/01/04 05:06:42;;;;;;;3.20;1.50;;;3.90;99.90;;;;;;5005905;28;20516;-72
2023/01/04 05:09:09;;;;;;;5.80;1.87;;;3.90;99.90;;;;;;5030522;28;20469;-73
2023/01/04 05:14:18;;;;;;;4.33;1.97;;;3.90;99.90;;;;;;5026993;28;20424;-73
2023/01/04 05:16:44;;;;;;;6.07;2.40;;;4.00;99.90;;;;;;5031561;28;20781;-72
2023/01/04 05:19:10;;;;;;;3.57;2.03;;;4.10;99.90;;;;;;5018490;28;20187;-72
2023/01/04 05:21:35;;;;;;;3.33;1.80;;;4.10;99.90;;;;;;5020291;28;20194;-72
2023/01/04 05:24:01;;;;;;;4.70;1.57;;;4.20;99.90;;;;;;5031207;28;20189;-72
2023/01/04 05:26:26;;;;;;;2.87;1.73;;;4.30;99.90;;;;;;5031272;28;20182;-72
2023/01/04 05:28:52;;;;;;;4.83;2.07;;;4.30;99.90;;;;;;5031212;28;20202;-73
2023/01/04 05:31:18;;;;;;;5.07;2.27;;;4.30;99.90;;;;;;5031283;28;20626;-72
2023/01/04 05:33:43;;;;;;;2.70;1.47;;;4.40;99.90;;;;;;5030871;28;20194;-72
2023/01/04 05:36:09;;;;;;;2.43;1.60;;;4.30;99.90;;;;;;5031583;28;20187;-72
2023/01/04 05:38:34;;;;;;;4.50;2.37;;;4.30;99.90;;;;;;5028714;28;20209;-72
2023/01/04 05:41:00;;;;;;;2.50;1.20;;;4.40;99.90;;;;;;5031524;28;20179;-72
2023/01/04 05:43:26;;;;;;;8.60;2.80;;;4.40;99.90;;;;;;5030587;28;20645;-72
2023/01/04 05:45:54;;;;;;;4.53;1.80;;;4.30;99.90;;;;;;5017144;28;20609;-72
2023/01/04 05:48:21;;;;;;;2.47;1.33;;;4.30;99.90;;;;;;5017051;28;20285;-72
2023/01/04 05:50:47;;;;;;;3.60;1.70;;;4.30;99.90;;;;;;5031002;28;20825;-72
2023/01/04 05:53:16;;;;;;;4.60;1.70;;;4.20;99.90;;;;;;5022322;28;20414;-72
2023/01/04 05:55:42;;;;;;;2.90;1.70;;;4.20;99.90;;;;;;5030912;28;20421;-72
2023/01/04 05:58:08;;;;;;;5.47;2.30;;;4.30;99.90;;;;;;5015657;28;20448;-72
2023/01/04 06:00:34;;;;;;;4.57;2.10;;;4.20;99.90;;;;;;5015244;28;20500;-72
2023/01/04 06:02:59;;;;;;;2.77;1.53;;;4.30;99.90;;;;;;5026522;28;20256;-72
2023/01/04 06:05:26;;;;;;;4.10;2.10;;;4.30;99.90;;;;;;5030685;28;20535;-72
2023/01/04 06:07:51;;;;;;;2.90;1.67;;;4.30;99.90;;;;;;5020685;28;20242;-72
2023/01/04 06:10:18;;;;;;;6.00;2.30;;;4.40;99.90;;;;;;5030289;28;20865;-72
2023/01/04 06:12:45;;;;;;;6.10;2.30;;;4.40;99.90;;;;;;5028110;28;20421;-72
2023/01/04 06:15:11;;;;;;;4.87;1.80;;;4.40;99.90;;;;;;5020242;28;20405;-72
2023/01/04 06:17:37;;;;;;;3.20;1.50;;;4.40;99.90;;;;;;5030919;28;20435;-72
2023/01/04 06:20:05;;;;;;;2.80;1.60;;;4.50;99.90;;;;;;5020923;28;20649;-72
2023/01/04 06:22:31;;;;;;;3.03;1.43;;;4.60;99.90;;;;;;5015704;28;20893;-72
2023/01/04 06:24:58;;;;;;;3.50;1.40;;;4.70;99.90;;;;;;5030964;28;20481;-72
2023/01/04 06:27:24;;;;;;;3.43;1.93;;;4.70;99.90;;;;;;5030812;28;20564;-72
2023/01/04 06:29:50;;;;;;;3.00;1.40;;;4.80;99.90;;;;;;5029870;28;20276;-72
2023/01/04 06:32:15;;;;;;;2.23;1.17;;;4.80;99.90;;;;;;5030047;28;20191;-72
2023/01/04 06:34:41;;;;;;;19.60;2.27;;;4.80;99.90;;;;;;5030757;28;20189;-72
2023/01/04 06:37:08;;;;;;;3.27;1.90;;;4.80;99.90;;;;;;5030708;28;20187;-72
2023/01/04 06:39:34;;;;;;;2.90;1.63;;;4.80;99.90;;;;;;5024161;28;20241;-72
2023/01/04 06:42:00;;;;;;;3.23;1.50;;;4.70;99.90;;;;;;5014843;28;20984;-72
2023/01/04 06:44:25;;;;;;;4.97;1.80;;;4.70;99.90;;;;;;5031993;28;20445;-72
2023/01/04 06:46:51;;;;;;;3.30;1.80;;;4.70;99.90;;;;;;5017251;28;20205;-72
2023/01/04 06:49:16;;;;;;;3.30;1.40;;;4.70;99.90;;;;;;5034053;28;20237;-72
2023/01/04 06:51:42;;;;;;;4.10;2.00;;;4.70;99.90;;;;;;5033891;28;20636;-72
2023/01/04 06:54:10;;;;;;;3.83;1.80;;;4.70;99.90;;;;;;5015603;28;20195;-73
2023/01/04 06:56:36;;;;;;;3.00;1.23;;;4.70;99.90;;;;;;5024408;28;20210;-72
2023/01/04 06:59:02;;;;;;;2.33;1.60;;;4.70;99.90;;;;;;5014135;28;20414;-72
2023/01/04 07:01:27;;;;;;;1.60;0.90;;;4.60;99.90;;;;;;5016799;28;20186;-72
2023/01/04 07:03:53;;;;;;;3.20;1.50;;;4.60;99.90;;;;;;5033882;28;20198;-72
2023/01/04 07:06:18;;;;;;;1.90;1.00;;;4.60;99.90;;;;;;5034163;28;20201;-72
2023/01/04 07:08:44;;;;;;;3.00;1.37;;;4.70;99.90;;;;;;5034016;28;20206;-72
2023/01/04 07:11:09;;;;;;;4.33;2.00;;;4.70;99.90;;;;;;5016117;28;20586;-72
2023/01/04 07:13:35;;;;;;;2.93;1.77;;;4.70;99.90;;;;;;5022717;28;20185;-72
2023/01/04 07:16:01;;;;;;;2.07;1.40;;;4.70;99.90;;;;;;5019980;28;20687;-72
2023/01/04 07:18:26;;;;;;;3.43;1.73;;;4.70;99.90;;;;;;5030376;28;20191;-72
2023/01/04 07:20:52;;;;;;;3.80;1.50;;;4.70;99.90;;;;;;5029413;28;20607;-72
2023/01/04 07:23:18;;;;;;;2.37;1.40;;;4.70;99.90;;;;;;5033481;28;20222;-72
2023/01/04 07:25:43;;;;;;;3.67;1.83;;;4.80;99.90;;;;;;5032330;28;20218;-72
2023/01/04 07:28:09;;;;;;;5.30;1.87;;;4.70;99.90;;;;;;5024819;28;20225;-72
2023/01/04 07:30:35;;;;;;;4.80;1.47;;;4.70;99.90;;;;;;5028739;28;20183;-72
2023/01/04 07:33:00;;;;;;;2.80;1.50;;;4.70;99.90;;;;;;5033587;28;20187;-72
2023/01/04 07:35:26;;;;;;;3.33;1.00;;;4.70;99.90;;;;;;5033636;28;20182;-72
2023/01/04 07:37:51;;;;;;;1.77;0.80;;;4.70;99.90;;;;;;5024466;28;20636;-72
2023/01/04 07:40:17;;;;;;;1.60;0.70;;;4.80;99.90;;;;;;5025036;28;20221;-72
2023/01/04 07:42:43;;;;;;;2.80;1.37;;;4.80;99.90;;;;;;5020533;28;20240;-72
2023/01/04 07:45:09;;;;;;;1.27;0.70;;;4.90;99.90;;;;;;5023754;28;20437;-72
2023/01/04 07:47:35;;;;;;;1.83;1.00;;;5.00;99.90;;;;;;5016544;28;20656;-72
2023/01/04 07:50:00;;;;;;;1.93;1.20;;;4.90;99.90;;;;;;5012004;28;20440;-72
2023/01/04 07:52:26;;;;;;;1.30;0.70;;;4.90;99.90;;;;;;5028181;28;20183;-72
2023/01/04 07:54:52;;;;;;;1.40;0.60;;;4.90;99.90;;;;;;5012858;28;20214;-72
2023/01/04 07:57:17;;;;;;;1.30;0.70;;;4.90;99.90;;;;;;5018968;28;20679;-71
2023/01/04 07:59:43;;;;;;;1.77;0.77;;;4.90;99.90;;;;;;5011007;28;20179;-70
2023/01/04 08:02:10;;;;;;;1.80;1.07;;;4.90;99.90;;;;;;5022619;28;20182;-70
2023/01/04 08:04:36;;;;;;;1.40;0.70;;;4.90;99.90;;;;;;5032560;28;20205;-70
2023/01/04 08:07:01;;;;;;;1.93;1.00;;;4.90;99.90;;;;;;5032956;28;20778;-70
2023/01/04 08:09:27;;;;;;;4.13;1.23;;;4.90;99.90;;;;;;5031694;28;20190;-69
2023/01/04 08:11:53;;;;;;;1.63;0.80;;;4.90;99.90;;;;;;5025061;28;20183;-73
2023/01/04 08:14:18;;;;;;;1.50;0.67;;;4.90;99.90;;;;;;5026214;28;20189;-73
2023/01/04 08:16:44;;;;;;;8.50;1.43;;;4.90;99.90;;;;;;5012123;28;20623;-73
2023/01/04 08:19:19;;;;;;;2.13;0.93;;;4.90;99.90;;;;;;5018650;28;20214;-73
2023/01/04 08:21:46;;;;;;;3.27;0.87;;;4.90;99.90;;;;;;5020421;28;20259;-73
2023/01/04 08:24:14;;;;;;;2.30;1.00;;;5.00;99.90;;;;;;5031238;28;20440;-72
2023/01/04 08:26:40;;;;;;;4.80;1.47;;;5.00;99.90;;;;;;5031381;28;20996;-73
2023/01/04 08:29:05;;;;;;;1.40;0.70;;;5.00;99.90;;;;;;5030138;28;20555;-73
2023/01/04 08:31:32;;;;;;;2.27;0.97;;;5.10;99.90;;;;;;5012342;28;20948;-73
2023/01/04 08:34:01;;;;;;;3.20;1.47;;;5.10;99.90;;;;;;5028234;28;20190;-73
2023/01/04 08:36:28;;;;;;;1.50;0.90;;;5.10;99.90;;;;;;5032607;28;20424;-73
2023/01/04 08:38:56;;;;;;;1.87;1.10;;;5.10;99.90;;;;;;5032394;28;20932;-73
2023/01/04 08:41:22;;;;;;;1.60;0.90;;;5.20;99.90;;;;;;5032832;28;20473;-73
2023/01/04 08:43:48;;;;;;;2.00;1.13;;;5.10;99.90;;;;;;5029877;28;20799;-73
2023/01/04 08:46:14;;;;;;;2.50;1.10;;;5.20;99.90;;;;;;5012419;28;20191;-73
2023/01/04 08:48:40;;;;;;;1.50;0.70;;;5.20;99.90;;;;;;5016660;28;20281;-73
2023/01/04 08:51:15;;;;;;;1.40;0.80;;;5.20;99.90;;;;;;5032296;28;20416;-74
2023/01/04 08:53:42;;;;;;;1.50;0.80;;;5.20;99.90;;;;;;5027997;28;20451;-73
2023/01/04 08:56:08;;;;;;;1.90;1.00;;;5.20;99.90;;;;;;5031899;28;20460;-73
2023/01/04 08:58:35;;;;;;;1.93;1.27;;;5.20;99.90;;;;;;5025369;28;20454;-73
2023/01/04 09:01:09;;;;;;;7.20;0.90;;;5.20;99.90;;;;;;5013457;28;20969;-74
2023/01/04 09:03:35;;;;;;;1.80;0.93;;;5.20;99.90;;;;;;5006223;28;20429;-73
2023/01/04 09:06:08;;;;;;;1.97;0.83;;;5.20;99.90;;;;;;5018096;28;20521;-74
2023/01/04 09:08:34;;;;;;;1.67;0.70;;;5.20;99.90;;;;;;5006802;28;20553;-74
2023/01/04 09:11:08;;;;;;;1.60;0.80;;;5.30;99.90;;;;;;5004737;28;20418;-74
2023/01/04 09:13:35;;;;;;;3.50;0.97;;;5.30;99.90;;;;;;5008792;28;20472;-74
2023/01/04 09:16:07;;;;;;;1.30;0.67;;;5.40;99.90;;;;;;5006095;28;20418;-75
2023/01/04 09:18:34;;;;;;;1.20;0.60;;;5.40;99.90;;;;;;5004580;28;20919;-74
2023/01/04 09:21:07;;;;;;;1.20;0.50;;;5.40;99.90;;;;;;5012579;28;20462;-74
2023/01/04 09:23:33;;;;;;;1.40;0.60;;;5.50;99.90;;;;;;5011536;28;20433;-73
2023/01/04 09:26:07;;;;;;;2.43;1.23;;;5.50;99.90;;;;;;5011979;28;20893;-74
2023/01/04 09:28:33;;;;;;;2.47;1.10;;;5.60;99.90;;;;;;5032175;28;20461;-74
2023/01/04 09:31:04;;;;;;;2.17;0.73;;;5.60;99.90;;;;;;5031280;28;20425;-74
2023/01/04 09:33:29;;;;;;;1.60;0.90;;;5.70;99.90;;;;;;5025050;28;20610;-74
2023/01/04 09:35:59;;;;;;;2.60;0.70;;;5.70;99.90;;;;;;5023395;28;20437;-74
2023/01/04 09:38:24;;;;;;;1.73;0.90;;;5.80;99.90;;;;;;5024563;28;20201;-73
2023/01/04 09:41:17;;;;;;;1.50;0.70;;;5.80;99.90;;;;;;5005011;28;20524;-71
2023/01/04 09:43:47;;;;;;;1.80;0.70;;;5.90;99.90;;;;;;5030756;28;20198;-73
2023/01/04 09:46:33;;;;;;;2.20;0.83;;;5.90;99.90;;;;;;5015448;28;20878;-73
2023/01/04 09:49:24;;;;;;;1.40;0.60;;;6.00;99.90;;;;;;5014433;28;20547;-73
2023/01/04 09:51:55;;;;;;;1.30;0.60;;;6.00;99.90;;;;;;5021959;28;20436;-73
2023/01/04 09:54:25;;;;;;;2.47;0.63;;;6.00;99.90;;;;;;5030528;28;20808;-73
2023/01/04 09:56:57;;;;;;;1.80;0.73;;;6.10;99.90;;;;;;5029210;28;20425;-73
2023/01/04 09:59:31;;;;;;;2.60;0.77;;;6.20;99.90;;;;;;5014375;28;20503;-73
2023/01/04 10:02:03;;;;;;;1.20;0.60;;;6.20;99.90;;;;;;5021534;28;20460;-73
2023/01/04 10:04:43;;;;;;;2.53;1.10;;;6.20;99.90;;;;;;5030623;28;20425;-73
2023/01/04 10:07:28;;;;;;;3.03;0.80;;;6.20;99.90;;;;;;5031144;28;20421;-74
2023/01/04 10:09:55;;;;;;;1.30;0.60;;;6.20;99.90;;;;;;5028763;28;20413;-74
2023/01/04 10:12:39;;;;;;;1.40;0.70;;;6.20;99.90;;;;;;5031459;28;20413;-73
2023/01/04 10:15:18;;;;;;;3.00;0.83;;;6.20;99.90;;;;;;5034321;28;20428;-73
2023/01/04 10:17:50;;;;;;;2.10;0.90;;;6.20;99.90;;;;;;5034631;28;20424;-73
2023/01/04 10:20:42;;;;;;;1.70;0.60;;;6.20;99.90;;;;;;5034414;28;20423;-73
2023/01/04 10:23:20;;;;;;;1.27;0.60;;;6.30;99.90;;;;;;5031033;28;20445;-74
2023/01/04 10:25:55;;;;;;;1.20;0.50;;;6.30;99.90;;;;;;5034004;28;20769;-74
2023/01/04 10:28:54;;;;;;;2.27;1.03;;;6.20;99.90;;;;;;5034693;28;20471;-74
2023/01/04 10:31:25;;;;;;;1.30;0.60;;;6.30;99.90;;;;;;5034041;28;20478;-74
2023/01/04 10:34:16;;;;;;;1.40;0.60;;;6.30;99.90;;;;;;5021630;28;20435;-74
2023/01/04 10:36:44;;;;;;;1.30;0.60;;;6.40;99.90;;;;;;5027057;28;20562;-74
2023/01/04 10:39:16;;;;;;;1.53;0.60;;;6.40;99.90;;;;;;5034505;28;20425;-74
2023/01/04 10:41:57;;;;;;;1.97;0.80;;;6.50;99.90;;;;;;5033311;28;20444;-73
2023/01/04 10:44:41;;;;;;;1.33;0.70;;;6.50;99.90;;;;;;5040975;28;20413;-74
2023/01/04 10:47:21;;;;;;;5.93;1.00;;;6.50;99.90;;;;;;5023935;28;20569;-72
2023/01/04 10:49:52;;;;;;;1.10;0.40;;;6.60;99.90;;;;;;5027956;28;20986;-74
2023/01/04 10:52:40;;;;;;;1.47;0.60;;;6.70;99.90;;;;;;5031576;28;20426;-72
2023/01/04 10:55:21;;;;;;;1.67;0.60;;;6.70;99.90;;;;;;5015307;28;20411;-74
2023/01/04 10:58:01;;;;;;;3.37;0.73;;;6.70;99.90;;;;;;5001458;28;20469;-74
2023/01/04 11:00:40;;;;;;;1.70;0.70;;;6.80;99.90;;;;;;5010385;28;20921;-74
2023/01/04 11:03:36;;;;;;;5.73;0.60;;;6.80;99.90;;;;;;5013722;28;20484;-74
2023/01/04 11:06:27;;;;;;;1.77;0.53;;;6.90;99.90;;;;;;5013912;28;20781;-74
2023/01/04 11:09:10;;;;;;;1.83;0.87;;;7.00;99.90;;;;;;5031390;28;20468;-73
2023/01/04 11:11:44;;;;;;;3.40;0.93;;;7.00;99.90;;;;;;5025261;28;20433;-74
2023/01/04 11:14:10;;;;;;;2.37;0.97;;;6.90;99.90;;;;;;5025187;28;20425;-74
2023/01/04 11:16:38;;;;;;;1.93;0.90;;;6.90;99.90;;;;;;5012784;28;20425;-74
2023/01/04 11:19:06;;;;;;;1.10;0.50;;;7.00;99.90;;;;;;5019897;28;20460;-74
2023/01/04 11:21:40;;;;;;;1.47;0.67;;;7.00;99.90;;;;;;5009311;28;20474;-74
2023/01/04 11:24:07;;;;;;;4.30;1.90;;;7.10;99.90;;;;;;5024356;28;20596;-74
2023/01/04 11:26:42;;;;;;;1.40;0.60;;;7.10;99.90;;;;;;5032455;28;20429;-74
2023/01/04 11:29:40;;;;;;;1.30;0.50;;;7.10;99.90;;;;;;5030556;28;20994;-74
2023/01/04 11:32:38;;;;;;;1.40;0.67;;;7.10;99.90;;;;;;5016895;28;20448;-74
2023/01/04 11:35:04;;;;;;;3.23;0.73;;;7.20;99.90;;;;;;5005995;28;20962;-74
2023/01/04 11:37:36;;;;;;;3.73;1.63;;;7.20;99.90;;;;;;5002788;28;20552;-74
2023/01/04 11:40:17;;;;;;;2.70;1.40;;;7.30;99.90;;;;;;5031742;28;20182;-74
2023/01/04 11:42:51;;;;;;;1.37;0.70;;;7.30;99.90;;;;;;5024267;28;20536;-74
2023/01/04 11:45:17;;;;;;;1.10;0.50;;;7.30;99.90;;;;;;5016213;28;20429;-74
2023/01/04 11:47:57;;;;;;;7.83;1.60;;;7.30;99.90;;;;;;5016206;28;20462;-74
2023/01/04 11:50:42;;;;;;;2.87;0.97;;;7.30;99.90;;;;;;5030771;28;20187;-74
2023/01/04 11:53:23;;;;;;;4.23;0.90;;;7.30;99.90;;;;;;5031452;28;20812;-74
2023/01/04 11:55:50;;;;;;;1.27;0.73;;;7.30;99.90;;;;;;5021828;28;20418;-74
2023/01/04 11:58:17;;;;;;;2.60;0.90;;;7.30;99.90;;;;;;5025259;28;20429;-74
2023/01/04 12:00:54;;;;;;;1.20;0.60;;;7.30;99.90;;;;;;5013203;28;20434;-74
2023/01/04 12:03:40;;;;;;;1.30;0.60;;;7.40;99.90;;;;;;5029535;28;20818;-73
2023/01/04 12:06:21;;;;;;;3.10;0.80;;;7.50;99.90;;;;;;5030609;28;20429;-74
2023/01/04 12:08:47;;;;;;;1.30;0.60;;;7.50;99.90;;;;;;5030926;28;20967;-74
2023/01/04 12:11:23;;;;;;;8.20;0.87;;;7.50;99.90;;;;;;5030149;28;20424;-73
2023/01/04 12:13:49;;;;;;;1.40;0.50;;;7.60;99.90;;;;;;5024494;28;20777;-74
2023/01/04 12:16:33;;;;;;;1.17;0.53;;;7.60;99.90;;;;;;5015213;28;20433;-73
2023/01/04 12:18:59;;;;;;;1.50;0.50;;;7.70;99.90;;;;;;5030894;28;20261;-74
2023/01/04 12:21:26;;;;;;;2.07;0.70;;;7.90;99.90;;;;;;5025320;28;20479;-73
2023/01/04 12:23:54;;;;;;;1.10;0.50;;;7.80;99.90;;;;;;5028388;28;20421;-73
2023/01/04 12:26:22;;;;;;;1.83;0.60;;;7.80;99.90;;;;;;5031368;28;20439;-73
2023/01/04 12:28:52;;;;;;;2.17;0.70;;;7.90;99.90;;;;;;5030840;28;20496;-73
2023/01/04 12:31:18;;;;;;;1.30;0.57;;;7.90;99.90;;;;;;5028382;28;20421;-74
2023/01/04 12:33:52;;;;;;;1.20;0.60;;;7.80;99.90;;;;;;5025834;28;20428;-73
2023/01/04 12:36:37;;;;;;;1.40;0.70;;;7.80;99.90;;;;;;5030197;28;20182;-73
2023/01/04 12:39:12;;;;;;;1.20;0.60;;;7.90;99.90;;;;;;5030915;28;20459;-74
2023/01/04 12:41:38;;;;;;;1.97;0.70;;;7.90;99.90;;;;;;5019942;28;20437;-75
2023/01/04 12:44:37;;;;;;;1.97;1.07;;;7.90;99.90;;;;;;5007107;28;20488;-73
2023/01/04 12:50:12;;;;;;;1.87;0.83;;;8.00;99.90;;;;;;5032669;28;20428;-74
2023/01/04 12:52:51;;;;;;;2.03;0.77;;;8.00;99.90;;;;;;5030823;28;20489;-73
2023/01/04 12:55:31;;;;;;;1.63;0.60;;;8.00;99.90;;;;;;5017999;28;20408;-75
2023/01/04 12:58:26;;;;;;;1.30;0.67;;;8.10;99.90;;;;;;5014719;28;20929;-74
2023/01/04 13:00:51;;;;;;;1.20;0.57;;;8.10;99.90;;;;;;5019124;28;20421;-74
2023/01/04 13:03:17;;;;;;;2.07;1.10;;;8.20;99.90;;;;;;5014809;28;20409;-75
2023/01/04 13:05:49;;;;;;;3.90;1.13;;;8.20;99.90;;;;;;5021490;28;20182;-74
2023/01/04 13:08:14;;;;;;;3.57;0.97;;;8.20;99.90;;;;;;5015804;28;20215;-74
2023/01/04 13:10:52;;;;;;;4.23;0.60;;;8.30;99.90;;;;;;5010126;28;20918;-73
2023/01/04 13:13:29;;;;;;;1.50;0.60;;;8.30;99.90;;;;;;5012432;28;20261;-75
2023/01/04 13:16:12;;;;;;;1.40;0.80;;;8.40;99.90;;;;;;5013076;28;20508;-74
2023/01/04 13:18:49;;;;;;;3.60;0.70;;;8.40;99.90;;;;;;5011024;28;20604;-73
2023/01/04 13:21:16;;;;;;;2.77;0.57;;;8.40;99.90;;;;;;5030729;28;20940;-75
2023/01/04 13:24:04;;;;;;;1.30;0.60;;;8.50;99.90;;;;;;5031387;28;20421;-70
2023/01/04 13:26:35;;;;;;;1.30;0.50;;;8.50;99.90;;;;;;5019419;28;20430;-74
2023/01/04 13:29:21;;;;;;;1.10;0.50;;;8.60;99.90;;;;;;5010649;28;20471;-74
2023/01/04 13:32:03;;;;;;;2.00;0.63;;;8.60;99.90;;;;;;5009375;28;20429;-73
2023/01/04 13:34:32;;;;;;;2.37;0.60;;;8.70;99.90;;;;;;5011975;28;20429;-71
2023/01/04 13:37:04;;;;;;;1.13;0.50;;;8.70;99.90;;;;;;5010322;28;20410;-71
2023/01/04 13:39:29;;;;;;;1.13;0.47;;;8.70;99.90;;;;;;5010239;28;20418;-72
2023/01/04 13:41:56;;;;;;;1.10;0.50;;;8.70;99.90;;;;;;5010638;28;20442;-72
2023/01/04 13:44:31;;;;;;;1.20;0.57;;;8.70;99.90;;;;;;5010935;28;20237;-72
2023/01/04 13:46:57;;;;;;;1.10;0.40;;;8.70;99.90;;;;;;5013393;28;20490;-72
2023/01/04 13:49:23;;;;;;;2.50;0.60;;;8.70;99.90;;;;;;5030935;28;20957;-72
2023/01/04 13:51:49;;;;;;;2.47;1.10;;;8.60;99.90;;;;;;5030526;28;20838;-73
2023/01/04 13:54:20;;;;;;;1.90;1.00;;;8.70;99.90;;;;;;5020015;28;20432;-73
2023/01/04 13:56:46;;;;;;;1.80;0.97;;;8.70;99.90;;;;;;5015758;28;20213;-72
2023/01/04 13:59:12;;;;;;;1.70;0.90;;;8.60;99.90;;;;;;5010810;28;20469;-72